createdAt,value
2022-11-10T00:02:10.025Z,62.93
2022-11-10T00:04:37.996Z,61.90
2022-11-10T00:07:05.906Z,65.00
2022-11-10T00:09:35.212Z,65.03
2022-11-10T00:12:03.213Z,67.63
2022-11-10T00:14:48.517Z,60.17
2022-11-10T00:17:16.363Z,60.50
2022-11-10T00:19:44.209Z,64.00
2022-11-10T00:22:12.034Z,66.83
2022-11-10T00:24:41.300Z,61.37
2022-11-10T00:27:09.118Z,57.87
2022-11-10T00:29:37.000Z,60.63
2022-11-10T00:32:05.079Z,61.90
2022-11-10T00:34:32.933Z,62.40
2022-11-10T00:37:00.755Z,57.37
2022-11-10T00:39:28.636Z,66.13
2022-11-10T00:41:58.105Z,61.93
2022-11-10T00:44:26.287Z,62.70
2022-11-10T00:46:54.136Z,59.43
2022-11-10T00:49:22.141Z,62.87
2022-11-10T00:51:50.050Z,61.67
2022-11-10T00:54:17.903Z,61.17
2022-11-10T00:56:45.831Z,63.87
2022-11-10T00:59:15.025Z,58.90
2022-11-10T01:01:42.885Z,59.90
2022-11-10T01:04:10.748Z,62.63
2022-11-10T01:06:38.611Z,59.90
2022-11-10T01:09:06.459Z,61.03
2022-11-10T01:11:34.330Z,60.90
2022-11-10T01:14:02.210Z,60.13
2022-11-10T01:16:33.099Z,58.63
2022-11-10T01:19:03.522Z,59.87
2022-11-10T01:21:31.838Z,57.90
2022-11-10T01:23:59.808Z,63.23
2022-11-10T01:26:27.704Z,59.13
2022-11-10T01:28:55.536Z,62.77
2022-11-10T01:31:23.869Z,59.30
2022-11-10T01:33:53.121Z,62.10
2022-11-10T01:36:20.973Z,62.13
2022-11-10T01:38:48.845Z,61.53
2022-11-10T01:41:16.736Z,59.63
2022-11-10T01:43:44.570Z,58.23
2022-11-10T01:46:13.373Z,59.10
2022-11-10T01:48:46.787Z,60.33
2022-11-10T01:51:20.796Z,60.13
2022-11-10T01:53:52.148Z,59.10
2022-11-10T01:56:20.988Z,58.97
2022-11-10T01:58:55.129Z,62.53
2022-11-10T02:01:24.306Z,58.73
2022-11-10T02:03:54.551Z,55.10
2022-11-10T02:06:27.829Z,59.23
2022-11-10T02:08:56.952Z,58.07
2022-11-10T02:11:24.877Z,54.30
2022-11-10T02:13:53.822Z,56.87
2022-11-10T02:16:23.180Z,63.13
2022-11-10T02:18:51.383Z,59.07
2022-11-10T02:21:21.927Z,57.90
2022-11-10T02:23:51.663Z,59.77
2022-11-10T02:26:23.512Z,61.87
2022-11-10T02:28:51.564Z,63.00
2022-11-10T02:31:19.431Z,55.80
2022-11-10T02:33:47.375Z,54.73
2022-11-10T02:36:15.231Z,59.47
2022-11-10T02:38:44.453Z,57.93
2022-11-10T02:41:12.288Z,57.87
2022-11-10T02:43:40.608Z,58.00
2022-11-10T02:46:08.486Z,61.70
2022-11-10T02:48:36.355Z,56.10
2022-11-10T02:51:04.350Z,57.50
2022-11-10T02:53:32.288Z,51.37
2022-11-10T02:56:01.501Z,55.37
2022-11-10T02:58:29.326Z,59.13
2022-11-10T03:00:57.195Z,54.80
2022-11-10T03:03:25.274Z,54.70
2022-11-10T03:05:53.271Z,52.63
2022-11-10T03:08:21.157Z,56.37
2022-11-10T03:10:48.975Z,61.07
2022-11-10T03:13:18.178Z,56.03
2022-11-10T03:15:48.378Z,56.77
2022-11-10T03:18:16.362Z,60.67
2022-11-10T03:20:44.196Z,55.53
2022-11-10T03:23:12.047Z,57.33
2022-11-10T03:25:39.903Z,59.67
2022-11-10T03:28:07.835Z,55.33
2022-11-10T03:30:37.128Z,54.90
2022-11-10T03:33:05.152Z,53.13
2022-11-10T03:35:34.014Z,53.40
2022-11-10T03:38:01.873Z,57.50
2022-11-10T03:40:29.777Z,50.53
2022-11-10T03:42:57.668Z,52.83
2022-11-10T03:45:26.117Z,53.30
2022-11-10T03:47:55.419Z,55.63
2022-11-10T03:50:23.299Z,53.37
2022-11-10T03:52:51.185Z,52.97
2022-11-10T03:55:20.906Z,55.30
2022-11-10T03:57:48.773Z,57.27
2022-11-10T04:00:17.211Z,57.67
2022-11-10T04:02:45.104Z,60.53
2022-11-10T04:05:31.436Z,59.07
2022-11-10T04:08:18.559Z,56.90
2022-11-10T04:10:46.873Z,62.47
2022-11-10T04:13:32.210Z,56.47
2022-11-10T04:16:00.119Z,65.47
2022-11-10T04:18:29.633Z,63.33
2022-11-10T04:21:00.971Z,61.93
2022-11-10T04:23:34.813Z,64.83
2022-11-10T04:26:23.302Z,63.20
2022-11-10T04:28:53.110Z,68.53
2022-11-10T04:31:23.467Z,66.10
2022-11-10T04:33:52.008Z,66.43
2022-11-10T04:36:23.880Z,67.70
2022-11-10T04:38:51.902Z,63.47
2022-11-10T04:41:19.991Z,64.50
2022-11-10T04:43:47.909Z,64.97
2022-11-10T04:46:23.833Z,61.87
2022-11-10T04:48:52.369Z,65.77
2022-11-10T04:51:23.299Z,59.67
2022-11-10T04:53:51.212Z,59.37
2022-11-10T04:56:20.767Z,70.60
2022-11-10T04:58:48.932Z,76.63
2022-11-10T05:01:19.619Z,77.00
2022-11-10T05:03:48.827Z,79.53
2022-11-10T05:06:17.210Z,77.17
2022-11-10T05:08:47.472Z,70.73
2022-11-10T05:11:15.576Z,76.80
2022-11-10T05:13:44.217Z,76.63
2022-11-10T05:16:12.720Z,76.17
2022-11-10T05:18:41.161Z,73.80
2022-11-10T05:21:09.051Z,68.40
2022-11-10T05:23:39.791Z,73.33
2022-11-10T05:26:11.213Z,69.03
2022-11-10T05:28:39.703Z,71.93
2022-11-10T05:31:09.025Z,76.30
2022-11-10T05:33:38.887Z,68.50
2022-11-10T05:36:07.865Z,67.00
2022-11-10T05:38:40.511Z,72.07
2022-11-10T05:41:11.418Z,64.70
2022-11-10T05:43:39.255Z,64.37
2022-11-10T05:46:07.376Z,74.33
2022-11-10T05:48:35.239Z,65.93
2022-11-10T05:51:03.079Z,71.97
2022-11-10T05:53:30.935Z,73.17
2022-11-10T05:55:58.799Z,79.83
2022-11-10T05:58:27.996Z,88.40
2022-11-10T06:00:55.822Z,95.87
2022-11-10T06:03:24.160Z,85.63
2022-11-10T06:05:53.349Z,77.17
2022-11-10T06:08:21.274Z,78.40
2022-11-10T06:10:49.093Z,75.60
2022-11-10T06:13:16.936Z,70.17
2022-11-10T06:15:50.202Z,70.07
2022-11-10T06:18:18.608Z,68.43
2022-11-10T06:20:47.274Z,65.43
2022-11-10T06:23:15.507Z,69.13
2022-11-10T06:25:44.689Z,64.13
2022-11-10T06:28:12.594Z,65.67
2022-11-10T06:30:40.447Z,63.13
2022-11-10T06:33:10.064Z,64.37
2022-11-10T06:35:38.116Z,59.30
2022-11-10T06:38:07.701Z,58.57
2022-11-10T06:40:35.693Z,60.00
2022-11-10T06:43:04.524Z,54.57
2022-11-10T06:45:32.469Z,56.17
2022-11-10T06:48:01.260Z,54.13
2022-11-10T06:50:31.039Z,50.37
2022-11-10T06:52:59.952Z,46.83
2022-11-10T06:55:28.778Z,52.23
2022-11-10T06:57:56.687Z,49.90
2022-11-10T07:00:25.241Z,45.67
2022-11-10T07:03:00.654Z,45.63
2022-11-10T07:05:29.972Z,50.60
2022-11-10T07:08:02.382Z,54.70
2022-11-10T07:10:30.205Z,58.43
2022-11-10T07:12:58.700Z,64.13
2022-11-10T07:15:27.073Z,59.53
2022-11-10T07:17:54.987Z,55.77
2022-11-10T07:20:22.903Z,59.00
2022-11-10T07:22:58.604Z,62.43
2022-11-10T07:25:26.760Z,57.07
2022-11-10T07:27:55.363Z,61.77
2022-11-10T07:30:23.322Z,57.87
2022-11-10T07:32:59.302Z,56.10
2022-11-10T07:35:28.556Z,63.67
2022-11-10T07:37:58.342Z,67.40
2022-11-10T07:40:26.167Z,59.33
2022-11-10T07:42:54.076Z,66.37
2022-11-10T07:45:21.919Z,67.30
2022-11-10T07:47:50.310Z,59.50
2022-11-10T07:50:18.398Z,58.03
2022-11-10T07:52:46.269Z,61.50
2022-11-10T07:55:15.519Z,60.33
2022-11-10T07:57:43.384Z,64.93
2022-11-10T08:00:13.578Z,63.67
2022-11-10T08:02:41.493Z,68.10
2022-11-10T08:05:10.207Z,64.63
2022-11-10T08:07:38.249Z,64.03
2022-11-10T08:10:06.998Z,67.13
2022-11-10T08:12:36.293Z,78.57
2022-11-10T08:15:04.672Z,74.30
2022-11-10T08:17:32.528Z,80.30
2022-11-10T08:20:00.596Z,84.93
2022-11-10T08:22:28.421Z,74.80
2022-11-10T08:24:56.263Z,78.47
2022-11-10T08:27:24.133Z,68.23
2022-11-10T08:29:53.327Z,64.37
2022-11-10T08:32:21.244Z,64.67
2022-11-10T08:34:49.252Z,70.33
2022-11-10T08:37:17.142Z,67.43
2022-11-10T08:39:45.054Z,66.63
2022-11-10T08:42:12.910Z,65.75
2022-11-10T08:44:40.758Z,59.00
2022-11-10T08:47:10.216Z,54.75
2022-11-10T08:49:38.044Z,54.42
2022-11-10T08:52:05.955Z,52.78
2022-11-10T08:54:33.864Z,51.85
2022-11-10T08:57:01.696Z,51.55
2022-11-10T08:59:29.719Z,49.75
2022-11-10T09:01:58.742Z,52.47
2022-11-10T09:04:28.008Z,49.75
2022-11-10T09:06:57.811Z,49.30
2022-11-10T09:09:26.799Z,47.85
2022-11-10T09:11:54.653Z,49.67
2022-11-10T09:14:22.804Z,49.47
2022-11-10T09:16:50.644Z,48.10
2022-11-10T09:19:19.977Z,47.80
2022-11-10T09:21:49.527Z,45.28
2022-11-10T09:24:17.528Z,46.30
2022-11-10T09:26:47.643Z,46.65
2022-11-10T09:29:15.766Z,43.70
2022-11-10T09:31:45.210Z,44.13
2022-11-10T09:34:13.102Z,44.58
2022-11-10T09:36:41.338Z,46.78
2022-11-10T09:39:10.668Z,45.22
2022-11-10T09:41:41.968Z,47.08
2022-11-10T09:44:15.899Z,44.28
2022-11-10T09:46:47.572Z,44.88
2022-11-10T09:49:26.587Z,46.67
2022-11-10T09:51:55.640Z,50.55
2022-11-10T09:54:34.234Z,51.75
2022-11-10T09:57:05.970Z,52.15
2022-11-10T09:59:35.712Z,47.00
2022-11-10T10:02:05.999Z,47.35
2022-11-10T10:04:51.889Z,51.00
2022-11-10T10:07:26.882Z,46.53
2022-11-10T10:10:03.621Z,46.40
2022-11-10T10:12:56.926Z,46.55
2022-11-10T10:15:31.850Z,44.63
2022-11-10T10:18:22.388Z,42.67
2022-11-10T10:21:07.167Z,42.70
2022-11-10T10:26:30.157Z,44.35
2022-11-10T10:29:02.322Z,45.42
2022-11-10T10:31:35.762Z,44.15
2022-11-10T10:34:05.178Z,43.55
2022-11-10T10:36:33.294Z,46.05
2022-11-10T10:39:04.646Z,44.70
2022-11-10T10:41:34.989Z,44.75
2022-11-10T10:44:10.976Z,43.90
2022-11-10T10:46:45.931Z,43.28
2022-11-10T10:49:28.485Z,43.00
2022-11-10T10:52:06.451Z,41.95
2022-11-10T10:54:36.072Z,45.22
2022-11-10T10:57:19.435Z,42.88
2022-11-10T10:59:47.947Z,43.65
2022-11-10T11:02:27.642Z,44.88
2022-11-10T11:05:12.757Z,42.05
2022-11-10T11:07:40.819Z,40.60
2022-11-10T11:10:19.935Z,40.30
2022-11-10T11:12:49.271Z,40.45
2022-11-10T11:15:25.780Z,40.40
2022-11-10T11:17:59.061Z,40.17
2022-11-10T11:20:35.807Z,38.95
2022-11-10T11:23:17.732Z,42.30
2022-11-10T11:25:48.568Z,38.78
2022-11-10T11:28:23.996Z,39.63
2022-11-10T11:31:04.485Z,38.28
2022-11-10T11:33:39.257Z,37.95
2022-11-10T11:36:18.633Z,39.65
2022-11-10T11:38:55.417Z,36.88
2022-11-10T11:41:35.333Z,39.60
2022-11-10T11:44:32.633Z,36.38
2022-11-10T11:47:19.476Z,37.20
2022-11-10T11:49:59.815Z,34.40
2022-11-10T11:52:36.141Z,36.35
2022-11-10T11:55:19.541Z,36.63
2022-11-10T11:58:05.844Z,34.58
2022-11-10T12:00:46.426Z,36.83
2022-11-10T12:03:44.037Z,35.63
2022-11-10T12:06:25.702Z,36.58
2022-11-10T12:09:02.523Z,35.30
2022-11-10T12:11:47.659Z,34.65
2022-11-10T12:14:26.620Z,37.90
2022-11-10T12:17:07.353Z,36.00
2022-11-10T12:19:41.978Z,34.17
2022-11-10T12:22:17.122Z,36.22
2022-11-10T12:24:57.230Z,35.88
2022-11-10T12:27:28.716Z,36.65
2022-11-10T12:29:59.283Z,37.45
2022-11-10T12:32:33.141Z,37.08
2022-11-10T12:35:08.317Z,37.72
2022-11-10T12:37:44.120Z,38.40
2022-11-10T12:40:16.600Z,37.40
2022-11-10T12:42:48.260Z,36.88
2022-11-10T12:45:22.995Z,35.50
2022-11-10T12:47:54.165Z,34.78
2022-11-10T12:50:33.473Z,34.92
2022-11-10T12:53:06.771Z,33.78
2022-11-10T12:55:39.015Z,34.17
2022-11-10T12:58:08.040Z,35.10
2022-11-10T13:00:42.850Z,35.85
2022-11-10T13:03:25.489Z,34.55
2022-11-10T13:05:57.112Z,37.88
2022-11-10T13:08:28.851Z,35.03
2022-11-10T13:11:01.531Z,34.42
2022-11-10T13:13:29.656Z,33.20
2022-11-10T13:15:59.161Z,36.55
2022-11-10T13:19:01.863Z,35.40
2022-11-10T13:22:11.169Z,34.90
2022-11-10T13:24:40.983Z,34.80
2022-11-10T13:27:13.209Z,33.28
2022-11-10T13:29:57.675Z,35.45
2022-11-10T13:32:30.806Z,36.63
2022-11-10T13:35:31.215Z,34.85
2022-11-10T13:38:00.799Z,34.38
2022-11-10T13:40:32.461Z,34.00
2022-11-10T13:43:23.350Z,37.47
2022-11-10T13:46:02.056Z,38.83
2022-11-10T13:48:58.614Z,35.45
2022-11-10T13:51:37.263Z,41.25
2022-11-10T13:54:37.608Z,32.57
2022-11-10T13:57:17.692Z,30.87
2022-11-10T13:59:52.694Z,31.80
2022-11-10T14:03:01.317Z,32.90
2022-11-10T14:06:11.855Z,33.27
2022-11-10T14:08:44.072Z,38.87
2022-11-10T14:11:23.869Z,35.10
2022-11-10T14:13:57.409Z,35.07
2022-11-10T14:16:27.325Z,32.10
2022-11-10T14:19:02.978Z,35.20
2022-11-10T14:21:41.644Z,33.10
2022-11-10T14:24:17.738Z,34.37
2022-11-10T14:26:51.926Z,32.57
2022-11-10T14:29:29.037Z,33.10
2022-11-10T14:31:58.633Z,35.93
2022-11-10T14:34:26.644Z,38.97
2022-11-10T14:36:58.166Z,49.17
2022-11-10T14:39:30.580Z,33.30
2022-11-10T14:42:02.757Z,32.77
2022-11-10T14:44:31.921Z,30.13
2022-11-10T14:47:14.862Z,38.30
2022-11-10T14:49:43.885Z,35.17
2022-11-10T14:52:14.911Z,32.33
2022-11-10T14:54:47.018Z,31.40
2022-11-10T14:57:20.505Z,35.43
2022-11-10T14:59:49.025Z,36.13
2022-11-10T15:02:19.749Z,33.17
2022-11-10T15:04:51.165Z,40.00
2022-11-10T15:07:20.042Z,33.77
2022-11-10T15:10:07.479Z,31.70
2022-11-10T15:12:41.815Z,35.33
2022-11-10T15:15:19.954Z,32.83
2022-11-10T15:17:50.117Z,32.30
2022-11-10T15:20:32.377Z,32.63
2022-11-10T15:23:01.648Z,37.33
2022-11-10T15:25:36.299Z,35.03
2022-11-10T15:28:15.484Z,35.07
2022-11-10T15:30:51.534Z,33.00
2022-11-10T15:33:25.297Z,36.23
2022-11-10T15:35:53.542Z,33.17
2022-11-10T15:38:27.847Z,40.47
2022-11-10T15:41:10.604Z,36.70
2022-11-10T15:43:39.879Z,48.33
2022-11-10T15:46:17.787Z,41.27
2022-11-10T15:48:48.531Z,45.00
2022-11-10T15:51:25.627Z,42.40
2022-11-10T15:53:55.335Z,44.00
2022-11-10T15:56:25.428Z,46.57
2022-11-10T15:58:59.257Z,46.13
2022-11-10T16:01:29.864Z,45.60
2022-11-10T16:03:57.702Z,51.70
2022-11-10T16:06:25.541Z,48.80
2022-11-10T16:08:53.440Z,45.80
2022-11-10T16:11:23.440Z,42.30
2022-11-10T16:13:52.925Z,46.37
2022-11-10T16:16:23.982Z,46.43
2022-11-10T16:18:52.246Z,44.80
2022-11-10T16:21:21.640Z,43.80
2022-11-10T16:23:49.559Z,42.23
2022-11-10T16:26:19.372Z,46.80
2022-11-10T16:28:47.802Z,45.60
2022-11-10T16:31:16.984Z,56.57
2022-11-10T16:33:47.472Z,48.77
2022-11-10T16:36:23.300Z,53.70
2022-11-10T16:38:51.121Z,55.93
2022-11-10T16:41:18.996Z,40.67
2022-11-10T16:43:46.782Z,47.00
2022-11-10T16:46:19.516Z,45.97
2022-11-10T16:48:49.895Z,43.57
2022-11-10T16:51:18.329Z,46.10
2022-11-10T16:53:46.895Z,55.53
2022-11-10T16:56:16.248Z,47.00
2022-11-10T16:58:44.181Z,41.53
2022-11-10T17:01:18.335Z,44.87
2022-11-10T17:03:50.478Z,46.13
2022-11-10T17:06:20.035Z,45.80
2022-11-10T17:08:48.697Z,48.80
2022-11-10T17:11:16.856Z,44.40
2022-11-10T17:13:45.101Z,43.60
2022-11-10T17:16:22.179Z,44.50
2022-11-10T17:18:52.347Z,43.83
2022-11-10T17:21:21.271Z,42.67
2022-11-10T17:23:49.431Z,55.47
2022-11-10T17:26:19.483Z,52.37
2022-11-10T17:28:47.259Z,62.20
2022-11-10T17:31:15.865Z,70.63
2022-11-10T17:33:43.721Z,103.13
2022-11-10T17:36:18.155Z,76.13
2022-11-10T17:38:46.859Z,58.00
2022-11-10T17:41:17.420Z,85.47
2022-11-10T17:43:47.112Z,82.03
2022-11-10T17:46:16.602Z,68.87
2022-11-10T17:48:45.634Z,64.63
2022-11-10T17:51:19.461Z,73.10
2022-11-10T17:53:47.727Z,65.87
2022-11-10T17:56:15.991Z,68.47
2022-11-10T17:58:43.829Z,72.67
2022-11-10T18:01:17.677Z,70.20
2022-11-10T18:03:46.345Z,70.70
2022-11-10T18:06:16.776Z,89.43
2022-11-10T18:08:45.396Z,70.97
2022-11-10T18:11:15.555Z,69.60
2022-11-10T18:13:44.208Z,70.67
2022-11-10T18:16:13.900Z,83.23
2022-11-10T18:18:42.209Z,75.70
2022-11-10T18:21:11.376Z,71.20
2022-11-10T18:23:40.640Z,75.93
2022-11-10T18:26:11.850Z,68.67
2022-11-10T18:28:42.056Z,68.40
2022-11-10T18:31:11.435Z,77.50
2022-11-10T18:33:39.453Z,74.33
2022-11-10T18:36:09.292Z,77.30
2022-11-10T18:38:37.084Z,71.47
2022-11-10T18:41:21.599Z,73.47
2022-11-10T18:43:49.485Z,70.60
2022-11-10T18:46:17.594Z,68.30
2022-11-10T18:48:46.454Z,66.83
2022-11-10T18:51:14.381Z,57.80
2022-11-10T18:53:42.267Z,58.37
2022-11-10T18:56:11.414Z,64.07
2022-11-10T18:58:39.217Z,60.67
2022-11-10T19:01:08.117Z,67.03
2022-11-10T19:03:37.035Z,63.30
2022-11-10T19:06:06.076Z,74.60
2022-11-10T19:08:33.968Z,79.97
2022-11-10T19:11:01.801Z,71.10
2022-11-10T19:13:31.168Z,72.80
2022-11-10T19:16:00.316Z,75.93
2022-11-10T19:18:30.162Z,77.07
2022-11-10T19:20:57.976Z,82.50
2022-11-10T19:23:26.366Z,81.00
2022-11-10T19:26:01.005Z,104.40
2022-11-10T19:28:30.525Z,90.80
2022-11-10T19:31:01.465Z,87.70
2022-11-10T19:33:30.614Z,85.80
2022-11-10T19:36:04.353Z,84.60
2022-11-10T19:38:32.508Z,108.77
2022-11-10T19:41:03.700Z,129.97
2022-11-10T19:43:32.982Z,135.23
2022-11-10T19:46:04.019Z,118.77
2022-11-10T19:48:32.805Z,76.80
2022-11-10T19:51:01.736Z,69.70
2022-11-10T19:53:30.700Z,97.80
2022-11-10T19:56:03.719Z,88.37
2022-11-10T19:58:33.307Z,92.57
2022-11-10T20:01:02.029Z,93.70
2022-11-10T20:03:30.381Z,79.07
2022-11-10T20:06:00.063Z,80.27
2022-11-10T20:08:28.278Z,79.13
2022-11-10T20:10:59.506Z,89.93
2022-11-10T20:13:27.787Z,94.27
2022-11-10T20:15:57.075Z,96.87
2022-11-10T20:18:25.025Z,97.40
2022-11-10T20:20:52.846Z,104.90
2022-11-10T20:23:20.972Z,94.70
2022-11-10T20:25:49.262Z,98.37
2022-11-10T20:28:17.086Z,100.50
2022-11-10T20:30:45.599Z,94.93
2022-11-10T20:33:14.846Z,106.13
2022-11-10T20:35:43.902Z,117.93
2022-11-10T20:38:12.317Z,104.30
2022-11-10T20:40:44.757Z,96.13
2022-11-10T20:43:14.798Z,111.93
2022-11-10T20:45:42.815Z,104.63
2022-11-10T20:48:10.837Z,101.60
2022-11-10T20:50:41.918Z,102.17
2022-11-10T20:53:09.781Z,105.93
2022-11-10T20:55:53.104Z,104.03
2022-11-10T20:58:21.598Z,103.93
2022-11-10T21:00:49.409Z,107.90
2022-11-10T21:03:17.219Z,126.90
2022-11-10T21:05:46.857Z,141.60
2022-11-10T21:08:15.065Z,128.53
2022-11-10T21:10:42.866Z,109.93
2022-11-10T21:13:10.823Z,128.43
2022-11-10T21:15:40.269Z,124.20
2022-11-10T21:18:08.107Z,113.80
2022-11-10T21:20:36.099Z,100.57
2022-11-10T21:23:05.283Z,116.60
2022-11-10T21:25:33.080Z,118.33
2022-11-10T21:28:02.742Z,106.83
2022-11-10T21:30:30.575Z,105.70
2022-11-10T21:32:58.634Z,96.67
2022-11-10T21:35:26.650Z,94.63
2022-11-10T21:37:54.928Z,100.57
2022-11-10T21:40:25.458Z,102.20
2022-11-10T21:42:55.605Z,102.00
2022-11-10T21:45:23.624Z,105.70
2022-11-10T21:47:51.475Z,97.17
2022-11-10T21:50:19.825Z,97.37
2022-11-10T21:52:47.688Z,96.53
2022-11-10T21:55:15.620Z,107.60
2022-11-10T21:57:44.834Z,119.20
2022-11-10T22:00:14.023Z,118.43
2022-11-10T22:02:42.103Z,116.63
2022-11-10T22:05:10.236Z,117.83
2022-11-10T22:07:39.756Z,111.07
2022-11-10T22:10:26.139Z,105.90
2022-11-10T22:13:12.657Z,116.50
2022-11-10T22:15:59.284Z,110.83
2022-11-10T22:18:40.371Z,97.10
2022-11-10T22:21:09.980Z,87.63
2022-11-10T22:23:54.224Z,95.03
2022-11-10T22:26:22.263Z,97.43
2022-11-10T22:28:51.454Z,87.60
2022-11-10T22:31:19.253Z,87.47
2022-11-10T22:33:47.109Z,97.33
2022-11-10T22:36:17.096Z,87.37
2022-11-10T22:38:44.952Z,90.57
2022-11-10T22:41:32.653Z,94.27
2022-11-10T22:44:05.103Z,107.13
2022-11-10T22:46:34.254Z,107.00
2022-11-10T22:49:02.524Z,112.27
2022-11-10T22:51:31.940Z,108.13
2022-11-10T22:54:00.232Z,98.30
2022-11-10T22:56:28.658Z,105.43
2022-11-10T22:58:59.909Z,88.10
2022-11-10T23:01:29.780Z,90.43
2022-11-10T23:03:59.086Z,93.33
2022-11-10T23:06:27.218Z,87.73
2022-11-10T23:08:55.491Z,94.10
2022-11-10T23:11:24.788Z,84.37
2022-11-10T23:13:52.630Z,83.83
2022-11-10T23:16:22.497Z,79.37
2022-11-10T23:18:52.546Z,79.87
2022-11-10T23:21:22.635Z,80.73
2022-11-10T23:23:51.488Z,78.60
2022-11-10T23:26:21.451Z,72.77
2022-11-10T23:28:49.863Z,73.40
2022-11-10T23:31:19.673Z,71.73
2022-11-10T23:33:49.323Z,72.83
2022-11-10T23:36:19.614Z,70.60
2022-11-10T23:38:48.724Z,80.30
2022-11-10T23:41:18.744Z,73.63
2022-11-10T23:43:46.670Z,90.33
2022-11-10T23:46:14.529Z,95.87
2022-11-10T23:48:47.443Z,89.27
2022-11-10T23:51:16.107Z,72.40
2022-11-10T23:53:45.589Z,63.83
2022-11-10T23:56:14.772Z,97.83
2022-11-10T23:58:42.743Z,111.30
